Latest Weather Observations for Canberra

IDN60901

Issued at 10:11 pm EDT Saturday 13 February 2016 (issued every 10 minutes, with the page automatically refreshed every 10 minutes)

About weather observations | Map of Canberra area stations | Latest observations for Canberra area | Other Formats
Station Details ID: 070351 Name: CANBERRA AIRPORT Lat: -35.31 Lon: 149.20 Height: 577.05 m
Data from the previous 72 hours. | See also: Recent months at Canberra
Date/Time
EDT
Tmp

°C
App
Tmp
°C
Dew
Point
°C
Rel
Hum
%
Delta-T

°C
Wind Press
QNH
hPa
Press
MSL
hPa
Rain
since
9 am
mm
Dir
 
Spd
km/h
Gust
km/h
Spd
kts
Gust
kts
13/10:00pm 22.5 23.4 14.1 59 5.0 E 2 6 1 3 1011.5 1009.0 0.0
13/09:30pm 22.9 24.1 13.7 56 5.5 CALM 0 0 0 0 1011.1 1008.5 0.0
13/09:00pm 24.7 24.5 13.6 50 6.7 N 7 9 4 5 1010.9 1008.3 0.0
13/08:30pm 24.2 23.8 14.0 53 6.2 ENE 9 11 5 6 1010.8 1008.2 0.0
13/08:00pm 26.6 26.1 12.6 42 8.3 WNW 7 9 4 5 1010.5 1008.0 0.0
13/07:30pm 29.2 27.9 11.3 33 10.6 W 9 11 5 6 1010.3 1007.8 0.0
13/07:00pm 30.4 28.5 11.9 32 11.1 W 13 17 7 9 1010.1 1007.6 0.0
13/06:30pm 31.3 29.4 11.7 30 11.7 W 13 17 7 9 1010.2 1007.7 0.0
13/06:00pm 31.4 28.3 10.2 27 12.4 W 17 24 9 13 1010.4 1007.9 0.0
13/05:30pm 31.3 27.6 9.5 26 12.6 WNW 19 26 10 14 1010.8 1008.2 0.0
13/05:00pm 31.5 26.8 7.9 23 13.3 W 22 33 12 18 1011.1 1008.5 0.0
13/04:30pm 31.3 27.2 10.1 27 12.4 WNW 22 35 12 19 1011.3 1008.8 0.0
13/04:00pm 31.7 28.8 11.0 28 12.3 WNW 17 26 9 14 1011.5 1009.0 0.0
13/03:30pm 31.4 28.2 11.2 29 12.0 WNW 19 33 10 18 1011.8 1009.3 0.0
13/03:00pm 31.1 27.9 12.0 31 11.5 NW 20 37 11 20 1012.0 1009.5 0.0
13/02:30pm 30.0 26.9 14.5 38 9.6 NNW 24 32 13 17 1012.3 1009.8 0.0
13/02:00pm 29.6 26.7 15.0 41 9.1 NW 24 41 13 22 1013.1 1010.6 0.0
13/01:30pm 29.1 26.3 13.3 37 9.6 NW 20 33 11 18 1013.4 1010.9 0.0
13/01:00pm 28.2 26.4 14.4 42 8.5 NNW 17 28 9 15 1013.9 1011.4 0.0
13/12:30pm 28.1 26.1 15.4 46 7.9 NW 20 33 11 18 1014.5 1012.0 0.0
13/12:00pm 27.1 25.8 15.8 50 7.1 WNW 17 30 9 16 1014.8 1012.3 0.0
13/11:30am 27.2 25.8 16.5 52 6.8 NW 19 26 10 14 1015.1 1012.6 0.0
13/11:00am 25.7 26.0 17.1 59 5.5 NW 11 17 6 9 1015.4 1012.9 0.0
13/10:30am 23.8 24.9 16.6 64 4.5 NW 6 11 3 6 1015.6 1013.1 0.0
13/10:00am 22.3 23.3 16.3 69 3.7 W 6 9 3 5 1015.8 1013.3 0.0
13/09:30am 21.0 22.0 16.4 75 2.8 N 6 9 3 5 1016.0 1013.6 0.0
13/09:00am 20.4 22.3 16.6 79 2.4 E 2 7 1 4 1016.2 1013.7 0.0
13/08:30am 19.2 20.1 16.6 85 1.6 ESE 7 9 4 5 1016.3 1013.8 0.0
13/08:00am 17.7 18.5 15.9 89 1.1 SSE 6 7 3 4 1016.2 1013.7 0.0
13/07:30am 16.6 17.3 16.0 96 0.4 ESE 7 9 4 5 1015.9 1013.5 0.0
13/07:00am 14.9 15.3 14.7 99 0.1 SE 6 7 3 4 1015.8 1013.3 0.0
13/06:30am 14.9 15.3 14.7 99 0.1 ESE 6 7 3 4 1015.5 1013.0 0.0
13/06:00am 15.2 16.8 15.0 99 0.1 CALM 0 0 0 0 1015.3 1012.8 0.0
13/05:30am 14.4 15.7 14.2 99 0.1 CALM 0 0 0 0 1015.2 1012.7 0.0
13/05:08am 14.9 16.4 14.7 99 0.1 CALM 0 0 0 0 1015.3 1012.8 0.0
13/05:00am 14.8 16.3 14.6 99 0.1 CALM 0 0 0 0 1015.3 1012.8 0.0
13/04:30am 16.2 18.2 16.0 99 0.1 CALM 0 0 0 0 1015.2 1012.7 0.0
13/04:02am 15.5 17.2 15.2 98 0.2 CALM 0 0 0 0 1015.3 1012.8 0.0
13/04:00am 15.6 17.3 15.3 98 0.2 CALM 0 0 0 0 1015.4 1012.9 0.0
13/03:30am 16.8 18.2 16.3 97 0.3 N 4 7 2 4 1015.4 1012.9 0.0
13/03:00am 17.0 19.2 16.5 97 0.3 CALM 0 0 0 0 1015.5 1013.0 0.0
13/02:30am 16.7 18.7 15.9 95 0.5 CALM 0 0 0 0 1015.7 1013.2 0.0
13/02:00am 17.4 17.6 16.8 96 0.4 ESE 11 11 6 6 1015.8 1013.3 0.0
13/01:30am 18.0 18.8 17.2 95 0.5 ESE 9 9 5 5 1015.9 1013.5 0.0
13/01:00am 18.4 19.0 17.6 95 0.5 ESE 11 13 6 7 1016.2 1013.7 0.0
13/12:30am 18.1 19.2 17.0 93 0.7 ESE 7 9 4 5 1016.3 1013.8 0.0
13/12:00am 18.9 20.0 17.2 90 1.1 ESE 7 9 4 5 1016.4 1013.9 0.0
 
Date/Time
EDT
Tmp

°C
App
Tmp
°C
Dew
Point
°C
Rel
Hum
%
Delta-T

°C
Wind Press
QNH
hPa
Press
MSL
hPa
Rain
since
9 am
mm
Dir
 
Spd
km/h
Gust
km/h
Spd
kts
Gust
kts
12/11:30pm 19.6 20.5 17.6 88 1.3 S 9 11 5 6 1016.4 1013.9 0.0
12/11:00pm 20.5 21.9 17.7 84 1.8 SSE 7 13 4 7 1016.4 1013.9 0.0
12/10:30pm 20.5 21.9 17.9 85 1.6 SSE 7 11 4 6 1016.5 1014.0 0.0
12/10:00pm 20.7 22.1 17.7 83 1.9 SE 7 9 4 5 1016.6 1014.1 0.0
12/09:30pm 21.5 23.2 17.1 76 2.8 ESE 4 7 2 4 1016.3 1013.8 0.0
12/09:00pm 22.3 24.3 17.0 72 3.3 NNE 2 11 1 6 1015.9 1013.5 0.0
12/08:30pm 22.7 22.6 16.9 70 3.6 ENE 13 19 7 10 1015.7 1013.2 0.0
12/08:00pm 23.5 22.5 17.5 69 3.8 ENE 19 26 10 14 1015.4 1012.9 0.0
12/07:30pm 24.8 22.7 16.2 58 5.4 ENE 22 30 12 16 1015.3 1012.8 0.0
12/07:00pm 26.7 24.7 13.8 45 7.8 ENE 17 20 9 11 1014.9 1012.4 0.0
12/06:30pm 27.3 24.8 13.6 43 8.3 ENE 19 26 10 14 1014.5 1012.0 0.0
12/06:00pm 28.0 26.4 15.0 45 8.1 E 17 24 9 13 1014.8 1012.3 0.0
12/05:30pm 28.1 28.5 12.5 38 9.3 SSW 2 6 1 3 1014.8 - 0.0
12/05:00pm 27.5 27.3 14.8 45 7.9 WSW 9 13 5 7 1014.9 1012.4 0.0
12/04:30pm 28.4 27.9 16.0 47 7.8 W 13 19 7 10 1014.8 1012.3 0.0
12/04:00pm 27.3 26.7 15.7 49 7.3 W 13 17 7 9 1014.8 1012.3 0.0
12/03:30pm 27.7 27.2 15.0 45 7.9 WNW 11 13 6 7 1015.2 1012.7 0.0
12/03:00pm 27.5 27.2 14.5 45 8.0 NW 9 13 5 7 1015.5 1013.0 0.0
12/02:30pm 27.1 26.6 13.8 44 8.1 N 9 15 5 8 1015.9 1013.5 0.0
12/02:00pm 28.0 27.4 15.6 46 7.8 N 13 19 7 10 1015.9 1013.5 0.0
12/01:30pm 26.8 26.5 15.5 50 7.0 NNW 11 17 6 9 1016.5 1014.0 0.0
12/01:00pm 26.1 26.1 15.2 51 6.7 NNE 9 19 5 10 1016.9 1014.4 0.0
12/12:30pm 25.6 25.7 15.6 54 6.2 NNW 9 13 5 7 1017.3 1014.8 0.0
12/12:00pm 24.8 25.4 15.4 56 5.8 W 6 9 3 5 1017.7 1015.3 0.0
12/11:30am 23.7 23.4 14.4 56 5.6 ENE 9 13 5 7 1018.2 1015.7 0.0
12/11:00am 22.9 22.7 14.7 60 5.0 ENE 9 13 5 7 1018.5 1016.0 0.0
12/10:30am 22.4 23.1 16.0 67 4.0 ENE 7 13 4 7 1018.9 1016.4 0.0
12/10:00am 20.8 20.9 15.6 72 3.2 SSE 9 13 5 7 1019.1 1016.7 0.0
12/09:30am 20.4 21.0 15.4 73 3.0 ESE 6 13 3 7 1019.0 1016.6 0.0
12/09:00am 20.7 20.5 15.7 73 3.1 ESE 11 15 6 8 1019.0 1016.6 2.4
12/08:30am 19.9 19.3 15.7 77 2.6 ESE 13 15 7 8 1018.9 1016.4 2.4
12/08:00am 18.4 18.8 16.4 88 1.2 E 9 11 5 6 1018.7 1016.2 2.4
12/07:30am 18.0 18.4 16.2 89 1.1 ENE 9 11 5 6 1018.6 1016.1 2.4
12/07:00am 17.5 17.6 16.4 93 0.7 ENE 11 15 6 8 1018.3 1015.8 2.4
12/06:30am 15.4 15.4 15.2 99 0.1 N 9 11 5 6 1018.1 1015.6 2.4
12/06:17am 14.8 15.0 14.3 97 0.3 NNE 6 7 3 4 1018.0 1015.5 2.4
12/06:00am 14.7 16.1 14.4 98 0.2 CALM 0 0 0 0 1017.7 1015.3 2.4
12/05:30am 14.6 14.2 14.1 97 0.3 ESE 9 13 5 7 1017.4 1015.0 2.4
12/05:00am 14.8 14.8 14.2 96 0.3 E 7 11 4 6 1017.2 1014.7 2.4
12/04:31am 15.5 16.2 14.4 93 0.6 ESE 4 7 2 4 1017.2 1014.7 2.4
12/04:30am 15.7 16.5 14.7 94 0.6 ESE 4 7 2 4 1017.1 1014.6 2.4
12/04:00am 15.9 16.2 15.1 95 0.5 SE 7 11 4 6 1017.0 1014.5 2.4
12/03:30am 16.2 16.3 15.4 95 0.5 S 9 9 5 5 1017.1 1014.6 2.4
12/03:21am 16.2 16.6 15.2 94 0.6 SE 7 9 4 5 1017.0 1014.5 2.4
12/03:00am 16.8 17.3 15.5 92 0.8 SE 7 9 4 5 1017.2 1014.7 2.4
12/02:30am 17.7 19.3 16.0 90 1.0 S 2 7 1 4 1017.4 1015.0 2.4
12/02:00am 17.1 18.7 16.0 93 0.7 NNE 2 6 1 3 1017.5 1015.1 2.4
12/01:59am 17.0 18.6 15.9 93 0.7 NNE 2 7 1 4 1017.5 1015.1 2.4
12/01:54am 16.8 17.5 15.5 92 0.8 NE 6 7 3 4 1017.4 1015.0 2.4
12/01:30am 17.3 17.7 16.3 94 0.6 SE 9 13 5 7 1017.7 1015.3 2.4
12/01:25am 16.9 17.2 15.9 94 0.6 SSE 9 11 5 6 1017.8 1015.4 2.4
12/01:00am 17.1 17.8 16.0 93 0.7 SE 7 9 4 5 1018.0 1015.5 2.4
12/12:30am 17.3 17.5 15.8 91 0.9 SSE 9 11 5 6 1018.1 1015.6 2.4
12/12:00am 18.2 18.4 15.8 86 1.5 SE 9 17 5 9 1017.8 1015.4 2.4
 
Date/Time
EDT
Tmp

°C
App
Tmp
°C
Dew
Point
°C
Rel
Hum
%
Delta-T

°C
Wind Press
QNH
hPa
Press
MSL
hPa
Rain
since
9 am
mm
Dir
 
Spd
km/h
Gust
km/h
Spd
kts
Gust
kts
11/11:30pm 18.6 18.9 16.0 85 1.6 SSE 9 13 5 7 1018.2 1015.7 2.4
11/11:00pm 19.1 19.1 16.3 84 1.7 E 11 13 6 7 1018.6 1016.1 2.4
11/10:33pm 19.3 18.9 16.3 83 1.8 E 13 15 7 8 1018.7 1016.2 2.4
11/10:30pm 19.5 19.6 16.5 83 1.9 E 11 15 6 8 1018.7 1016.2 2.4
11/10:00pm 20.2 20.0 16.6 80 2.2 SE 13 17 7 9 1018.4 1015.9 2.4
11/09:38pm 19.9 20.5 16.9 83 1.9 S 9 15 5 8 1017.7 1015.3 2.4
11/09:30pm 19.6 20.5 16.6 83 1.9 SE 7 11 4 6 1017.6 1015.2 2.4
11/09:00pm 20.2 20.4 16.8 81 2.1 NNE 11 13 6 7 1016.9 1014.4 2.4
11/08:30pm 20.3 20.8 16.5 79 2.4 E 9 11 5 6 1017.1 1014.6 2.4
11/08:00pm 20.8 19.5 16.8 78 2.5 ESE 19 30 10 16 1015.9 1013.5 2.4
11/07:30pm 21.4 20.2 17.4 78 2.5 SE 20 30 11 16 1016.0 - 2.4
11/07:00pm 21.6 21.1 17.8 79 2.4 SE 17 32 9 17 1016.0 1013.6 2.4
11/06:30pm 21.4 22.7 18.4 83 1.9 SSW 9 13 5 7 1015.9 - 2.4
11/06:00pm 20.1 19.6 17.9 87 1.4 ENE 17 20 9 11 1014.3 1011.7 2.2
11/05:30pm 19.7 17.6 17.1 85 1.6 ESE 24 44 13 24 1014.1 - 1.6
11/05:18pm 19.9 16.3 17.1 84 1.7 SE 32 44 17 24 1013.7 - 0.4
11/05:00pm 23.3 21.2 15.1 60 5.0 SE 20 48 11 26 1014.1 1011.6 0.0
11/04:42pm 28.1 25.6 16.1 48 7.6 ENE 24 32 13 17 1013.4 - 0.0
11/04:30pm 28.1 25.2 16.1 48 7.6 ENE 26 33 14 18 1013.5 - 0.0
11/04:00pm 28.2 26.0 14.4 42 8.5 ENE 19 33 10 18 1013.6 1011.1 0.0
11/03:30pm 28.9 27.4 14.3 40 9.0 ENE 15 24 8 13 1013.6 - 0.0
11/03:00pm 28.1 25.4 14.7 44 8.3 E 22 33 12 18 1014.4 1011.9 0.0
11/02:30pm 27.6 25.9 14.6 45 8.0 NE 17 24 9 13 1014.9 1012.4 0.0
11/02:00pm 27.3 25.4 15.3 48 7.5 ENE 19 28 10 15 1015.4 1012.9 0.0
11/01:30pm 27.6 26.7 15.9 49 7.4 NE 15 28 8 15 1015.7 1013.2 0.0
11/01:00pm 26.7 25.5 15.1 49 7.2 ENE 15 28 8 15 1015.9 1013.5 0.0
11/12:30pm 25.3 24.1 15.0 53 6.3 ENE 15 26 8 14 1016.4 1013.9 0.0
11/12:00pm 25.3 24.6 15.3 54 6.2 E 13 20 7 11 1016.5 1014.0 0.0
11/11:30am 24.0 23.6 15.2 58 5.4 ENE 11 17 6 9 1016.8 1014.3 0.0
11/11:00am 24.2 23.5 15.4 58 5.4 ESE 13 19 7 10 1017.0 1014.5 0.0
11/10:30am 23.0 21.9 15.3 62 4.7 ENE 15 19 8 10 1017.1 1014.6 0.0
11/10:00am 22.4 22.1 15.5 65 4.2 ESE 11 15 6 8 1017.1 1014.6 0.0
11/09:30am 21.7 21.8 15.5 68 3.8 ESE 9 17 5 9 1017.2 1014.7 0.0
11/09:00am 21.0 21.0 15.1 69 3.6 ESE 9 13 5 7 1017.2 1014.7 0.0
11/08:30am 20.4 20.5 15.4 73 3.0 SE 9 13 5 7 1017.2 1014.7 0.0
11/08:00am 18.9 19.0 15.4 80 2.1 SE 9 11 5 6 1016.9 1014.4 0.0
11/07:30am 17.6 17.9 15.0 85 1.6 SE 7 9 4 5 1016.8 1014.3 0.0
11/07:00am 15.9 15.7 14.8 93 0.6 ESE 9 9 5 5 1016.5 1014.0 0.0
11/06:30am 15.2 14.9 14.4 95 0.5 ESE 9 11 5 6 1016.0 1013.6 0.0
11/06:00am 15.5 16.5 14.4 93 0.6 E 2 7 1 4 1015.8 1013.3 0.0
11/05:30am 15.8 15.8 14.2 90 0.9 E 7 9 4 5 1015.5 1013.0 0.0
11/05:00am 16.9 16.3 14.7 87 1.3 SE 11 13 6 7 1015.3 1012.8 0.0
11/04:30am 16.3 16.5 14.8 91 0.9 ESE 7 9 4 5 1015.1 1012.6 0.0
11/04:00am 16.0 15.8 14.7 92 0.8 ESE 9 11 5 6 1015.0 1012.5 0.0
11/03:30am 16.1 16.1 14.3 89 1.1 E 7 9 4 5 1014.9 1012.4 0.0
11/03:00am 17.3 17.7 15.3 88 1.2 E 7 9 4 5 1014.9 1012.4 0.0
11/02:30am 17.1 16.6 14.9 87 1.3 ESE 11 13 6 7 1015.0 1012.5 0.0
11/02:00am 17.3 17.3 15.1 87 1.3 ESE 9 11 5 6 1015.3 1012.8 0.0
11/01:30am 17.5 17.9 15.3 87 1.3 SE 7 9 4 5 1015.5 1013.0 0.0
11/01:00am 16.9 17.1 14.7 87 1.3 ESE 7 9 4 5 1015.5 1013.0 0.0
11/12:30am 18.5 18.8 15.0 80 2.1 E 7 9 4 5 1015.8 1013.3 0.0
11/12:00am 19.4 19.7 15.1 76 2.6 SE 7 9 4 5 1015.9 1013.5 0.0
 
Date/Time
EDT
Tmp

°C
App
Tmp
°C
Dew
Point
°C
Rel
Hum
%
Delta-T

°C
Wind Press
QNH
hPa
Press
MSL
hPa
Rain
since
9 am
mm
Dir
 
Spd
km/h
Gust
km/h
Spd
kts
Gust
kts
10/11:30pm 19.7 19.6 14.9 74 2.9 SSE 9 15 5 8 1015.7 1013.2 0.0
10/11:00pm 20.7 20.5 14.6 68 3.7 SE 9 13 5 7 1015.5 1013.0 0.0
10/10:30pm 21.3 20.7 14.7 66 4.0 S 11 15 6 8 1015.5 1013.0 0.0

Latest Capital City Observations: Canberra | Sydney | Melbourne | Brisbane | Adelaide | Perth | Hobart | Darwin

Other Formats:

Comma delimited format used in spreadsheet applications
http://www.bom.gov.au/fwo/IDN60903/IDN60903.94926.axf

JavaScript Object Notation format (JSON) in row-major order
http://www.bom.gov.au/fwo/IDN60903/IDN60903.94926.json